createdAt,value
2023-04-05T00:00:30.752Z,98989.69
2023-04-05T00:01:34.280Z,98989.69
2023-04-05T00:02:36.964Z,98990.53
2023-04-05T00:03:42.736Z,98992.28
2023-04-05T00:04:52.385Z,98989.72
2023-04-05T00:05:55.584Z,98983.81
2023-04-05T00:06:58.308Z,98991.44
2023-04-05T00:08:02.005Z,98990.59
2023-04-05T00:09:05.324Z,98987.22
2023-04-05T00:10:11.844Z,98982.16
2023-04-05T00:11:13.719Z,98983.88
2023-04-05T00:12:16.651Z,98977.91
2023-04-05T00:13:19.257Z,98979.63
2023-04-05T00:14:22.029Z,98972.84
2023-04-05T00:15:24.570Z,98973.66
2023-04-05T00:16:28.301Z,98977.03
2023-04-05T00:17:31.522Z,98979.59
2023-04-05T00:18:38.823Z,98971.13
2023-04-05T00:19:40.986Z,98974.53
2023-04-05T00:20:44.206Z,98975.41
2023-04-05T00:21:46.671Z,98964.44
2023-04-05T00:22:50.572Z,98967.84
2023-04-05T00:23:53.897Z,98962.84
2023-04-05T00:24:56.663Z,98968.75
2023-04-05T00:26:01.161Z,98967.06
2023-04-05T00:27:03.933Z,98971.25
2023-04-05T00:28:05.892Z,98964.44
2023-04-05T00:29:10.875Z,98965.28
2023-04-05T00:30:13.280Z,98961.03
2023-04-05T00:31:16.764Z,98958.47
2023-04-05T00:32:19.132Z,98961.03
2023-04-05T00:33:22.060Z,98956.81
2023-04-05T00:34:24.179Z,98963.63
2023-04-05T00:35:28.275Z,98958.56
2023-04-05T00:36:31.157Z,98959.44
2023-04-05T00:37:34.005Z,98959.44
2023-04-05T00:38:36.014Z,98956.06
2023-04-05T00:39:39.232Z,98956.91
2023-04-05T00:40:43.583Z,98957.78
2023-04-05T00:41:48.834Z,98958.66
2023-04-05T00:42:50.921Z,98951.91
2023-04-05T00:43:53.719Z,98957.78
2023-04-05T00:44:56.157Z,98958.66
2023-04-05T00:45:59.188Z,98951.88
2023-04-05T00:47:02.947Z,98956.09
2023-04-05T00:48:06.635Z,98956.94
2023-04-05T00:49:09.269Z,98955.22
2023-04-05T00:50:12.270Z,98952.69
2023-04-05T00:51:15.163Z,98955.22
2023-04-05T00:52:19.463Z,98960.28
2023-04-05T00:53:21.882Z,98951.84
2023-04-05T00:54:25.565Z,98950.16
2023-04-05T00:55:27.845Z,98948.44
2023-04-05T00:56:31.851Z,98956.91
2023-04-05T00:57:39.168Z,98955.22
2023-04-05T00:58:43.036Z,98956.06
2023-04-05T00:59:45.042Z,98954.41
2023-04-05T01:00:59.312Z,98958.63
2023-04-05T01:02:05.111Z,98955.22
2023-04-05T01:03:08.352Z,98951.81
2023-04-05T01:04:14.003Z,98955.16
2023-04-05T01:05:26.029Z,98952.59
2023-04-05T01:06:39.040Z,98946.66
2023-04-05T01:07:46.586Z,98949.22
2023-04-05T01:08:53.846Z,98950.88
2023-04-05T01:09:57.434Z,98945.72
2023-04-05T01:11:05.513Z,98952.38
2023-04-05T01:12:09.745Z,98952.31
2023-04-05T01:13:13.916Z,98948.81
2023-04-05T01:14:16.251Z,98944.44
2023-04-05T01:15:19.087Z,98948.50
2023-04-05T01:16:20.970Z,98945.78
2023-04-05T01:17:28.316Z,98946.53
2023-04-05T01:18:30.952Z,98948.09
2023-04-05T01:19:37.220Z,98944.59
2023-04-05T01:21:00.760Z,98946.13
2023-04-05T01:22:15.813Z,98939.19
2023-04-05T01:23:38.645Z,98937.31
2023-04-05T01:24:52.853Z,98943.13
2023-04-05T01:26:32.973Z,98947.16
2023-04-05T01:27:46.689Z,98944.50
2023-04-05T01:29:37.885Z,98936.69
2023-04-05T01:30:42.608Z,98939.97
2023-04-05T01:31:51.667Z,98937.31
2023-04-05T01:33:04.643Z,98936.28
2023-04-05T01:34:12.509Z,98936.16
2023-04-05T01:35:18.650Z,98940.28
2023-04-05T01:36:27.264Z,98925.75
2023-04-05T01:37:32.839Z,98940.06
2023-04-05T01:38:36.979Z,98933.22
2023-04-05T01:39:40.070Z,98933.09
2023-04-05T01:40:43.625Z,98938.94
2023-04-05T01:41:46.432Z,98932.06
2023-04-05T01:42:50.664Z,98935.41
2023-04-05T01:43:52.578Z,98929.38
2023-04-05T01:44:58.156Z,98930.22
2023-04-05T01:46:00.279Z,98931.91
2023-04-05T01:47:03.209Z,98929.31
2023-04-05T01:48:05.915Z,98928.44
2023-04-05T01:49:09.515Z,98924.19
2023-04-05T01:50:11.328Z,98934.34
2023-04-05T01:51:16.443Z,98930.00
2023-04-05T01:52:20.221Z,98927.41
2023-04-05T01:53:23.136Z,98933.28
2023-04-05T01:54:25.114Z,98924.72
2023-04-05T01:55:27.977Z,98932.28
2023-04-05T01:56:29.828Z,98929.66
2023-04-05T01:57:32.754Z,98921.06
2023-04-05T01:58:34.637Z,98923.59
2023-04-05T01:59:38.139Z,98918.50
2023-04-05T02:00:42.103Z,98919.34
2023-04-05T02:01:45.374Z,98917.63
2023-04-05T02:02:47.336Z,98930.38
2023-04-05T02:03:51.088Z,98915.94
2023-04-05T02:04:53.554Z,98917.56
2023-04-05T02:05:56.475Z,98915.06
2023-04-05T02:07:01.037Z,98900.69
2023-04-05T02:08:03.956Z,98902.47
2023-04-05T02:09:05.819Z,98900.78
2023-04-05T02:10:09.969Z,98908.50
2023-04-05T02:11:13.770Z,98906.78
2023-04-05T02:12:16.703Z,98904.22
2023-04-05T02:13:22.067Z,98906.72
2023-04-05T02:14:25.935Z,98909.28
2023-04-05T02:15:27.794Z,98907.50
2023-04-05T02:16:35.212Z,98907.41
2023-04-05T02:17:40.031Z,98912.47
2023-04-05T02:18:43.617Z,98908.16
2023-04-05T02:19:49.810Z,98911.56
2023-04-05T02:20:52.973Z,98914.13
2023-04-05T02:21:54.954Z,98916.69
2023-04-05T02:23:01.566Z,98914.91
2023-04-05T02:24:04.217Z,98917.41
2023-04-05T02:25:08.679Z,98914.88
2023-04-05T02:26:13.149Z,98920.81
2023-04-05T02:27:16.037Z,98917.41
2023-04-05T02:28:21.032Z,98912.38
2023-04-05T02:29:29.232Z,98909.88
2023-04-05T02:30:31.755Z,98909.06
2023-04-05T02:31:36.262Z,98909.06
2023-04-05T02:32:38.254Z,98909.06
2023-04-05T02:33:44.118Z,98916.69
2023-04-05T02:34:46.323Z,98910.69
2023-04-05T02:35:52.089Z,98907.25
2023-04-05T02:36:53.997Z,98899.53
2023-04-05T02:37:57.013Z,98907.16
2023-04-05T02:39:01.633Z,98896.03
2023-04-05T02:40:08.797Z,98900.22
2023-04-05T02:41:13.329Z,98897.63
2023-04-05T02:42:17.361Z,98900.13
2023-04-05T02:43:19.172Z,98893.22
2023-04-05T02:44:22.267Z,98889.75
2023-04-05T02:45:28.554Z,98889.75
2023-04-05T02:46:36.468Z,98895.66
2023-04-05T02:47:40.736Z,98891.38
2023-04-05T02:48:43.703Z,98889.56
2023-04-05T02:49:49.156Z,98890.28
2023-04-05T02:50:55.030Z,98894.44
2023-04-05T02:51:57.039Z,98901.22
2023-04-05T02:52:59.856Z,98895.13
2023-04-05T02:54:03.421Z,98889.91
2023-04-05T02:55:14.085Z,98895.78
2023-04-05T02:56:15.943Z,98891.38
2023-04-05T02:57:21.330Z,98889.59
2023-04-05T02:58:32.575Z,98886.13
2023-04-05T02:59:38.264Z,98888.59
2023-04-05T03:00:41.093Z,98883.44
2023-04-05T03:01:48.201Z,98884.22
2023-04-05T03:02:59.328Z,98880.91
2023-04-05T03:04:02.799Z,98886.06
2023-04-05T03:05:07.805Z,98889.50
2023-04-05T03:06:11.828Z,98881.00
2023-04-05T03:07:18.633Z,98879.28
2023-04-05T03:08:24.037Z,98890.38
2023-04-05T03:09:35.175Z,98894.66
2023-04-05T03:10:45.064Z,98892.13
2023-04-05T03:11:52.362Z,98895.50
2023-04-05T03:12:55.165Z,98898.84
2023-04-05T03:14:00.264Z,98882.66
2023-04-05T03:15:29.437Z,98880.06
2023-04-05T03:16:32.785Z,98884.28
2023-04-05T03:17:44.152Z,98876.63
2023-04-05T03:18:47.212Z,98880.00
2023-04-05T03:19:50.079Z,98867.22
2023-04-05T03:20:57.135Z,98875.72
2023-04-05T03:22:00.873Z,98873.13
2023-04-05T03:23:08.772Z,98873.94
2023-04-05T03:24:12.891Z,98878.22
2023-04-05T03:25:17.466Z,98872.22
2023-04-05T03:26:24.511Z,98877.34
2023-04-05T03:27:30.880Z,98880.78
2023-04-05T03:28:45.205Z,98881.69
2023-04-05T03:29:47.666Z,98877.50
2023-04-05T03:30:53.610Z,98884.38
2023-04-05T03:31:58.606Z,98881.00
2023-04-05T03:33:03.456Z,98883.66
2023-04-05T03:34:13.123Z,98882.94
2023-04-05T03:35:21.153Z,98890.75
2023-04-05T03:36:24.600Z,98890.88
2023-04-05T03:37:28.422Z,98884.28
2023-04-05T03:38:39.769Z,98887.81
2023-04-05T03:39:50.926Z,98887.13
2023-04-05T03:40:55.583Z,98884.66
2023-04-05T03:41:57.593Z,98887.38
2023-04-05T03:43:00.420Z,98890.84
2023-04-05T03:44:02.793Z,98885.06
2023-04-05T03:45:07.058Z,98878.34
2023-04-05T03:46:09.069Z,98887.84
2023-04-05T03:47:13.232Z,98890.53
2023-04-05T03:48:20.212Z,98884.69
2023-04-05T03:49:25.046Z,98886.50
2023-04-05T03:50:27.831Z,98887.44
2023-04-05T03:51:31.208Z,98891.81
2023-04-05T03:52:33.131Z,98896.22
2023-04-05T03:53:41.275Z,98889.53
2023-04-05T03:54:43.575Z,98889.66
2023-04-05T03:55:49.486Z,98899.00
2023-04-05T03:56:55.118Z,98903.28
2023-04-05T03:57:59.338Z,98895.59
2023-04-05T03:59:09.358Z,98901.47
2023-04-05T04:00:14.416Z,98894.59
2023-04-05T04:01:20.029Z,98902.16
2023-04-05T04:02:22.210Z,98898.78
2023-04-05T04:03:28.824Z,98892.84
2023-04-05T04:04:30.933Z,98897.06
2023-04-05T04:05:41.331Z,98896.97
2023-04-05T04:06:44.407Z,98891.75
2023-04-05T04:07:48.521Z,98898.50
2023-04-05T04:08:50.659Z,98895.88
2023-04-05T04:09:55.406Z,98900.84
2023-04-05T04:10:58.085Z,98901.63
2023-04-05T04:12:04.308Z,98893.03
2023-04-05T04:13:06.931Z,98887.88
2023-04-05T04:14:10.370Z,98888.72
2023-04-05T04:15:31.778Z,98882.78
2023-04-05T04:17:02.697Z,98884.47
2023-04-05T04:18:28.173Z,98891.28
2023-04-05T04:19:50.298Z,98888.00
2023-04-05T04:21:33.597Z,98883.03
2023-04-05T04:22:49.038Z,98884.81
2023-04-05T04:24:06.407Z,98883.13
2023-04-05T04:25:30.875Z,98883.19
2023-04-05T04:26:50.332Z,98887.41
2023-04-05T04:28:07.365Z,98884.03
2023-04-05T04:29:31.284Z,98883.97
2023-04-05T04:30:57.654Z,98888.13
2023-04-05T04:32:10.957Z,98884.66
2023-04-05T04:33:35.659Z,98886.19
2023-04-05T04:34:58.699Z,98892.84
2023-04-05T04:36:37.003Z,98875.72
2023-04-05T04:37:57.866Z,98886.69
2023-04-05T04:39:32.225Z,98880.59
2023-04-05T04:40:53.742Z,98882.16
2023-04-05T04:42:19.856Z,98880.31
2023-04-05T04:43:43.868Z,98883.56
2023-04-05T04:44:50.033Z,98885.16
2023-04-05T04:46:01.589Z,98891.78
2023-04-05T04:47:14.418Z,98886.56
2023-04-05T04:48:47.384Z,98884.63
2023-04-05T04:50:07.838Z,98887.78
2023-04-05T04:51:13.393Z,98885.94
2023-04-05T04:52:15.409Z,98878.06
2023-04-05T04:53:18.735Z,98882.97
2023-04-05T04:54:22.773Z,98892.09
2023-04-05T04:55:26.180Z,98890.16
2023-04-05T04:56:28.026Z,98882.31
2023-04-05T04:57:32.506Z,98882.97
2023-04-05T04:58:34.452Z,98889.56
2023-04-05T04:59:42.721Z,98891.06
2023-04-05T05:00:45.139Z,98881.53
2023-04-05T05:01:48.254Z,98881.38
2023-04-05T05:02:50.873Z,98885.41
2023-04-05T05:03:56.111Z,98883.56
2023-04-05T05:05:02.872Z,98884.31
2023-04-05T05:06:06.309Z,98880.81
2023-04-05T05:07:11.173Z,98886.72
2023-04-05T05:08:14.012Z,98883.22
2023-04-05T05:09:17.140Z,98888.09
2023-04-05T05:10:25.620Z,98889.63
2023-04-05T05:11:32.118Z,98890.19
2023-04-05T05:12:35.164Z,98891.59
2023-04-05T05:13:39.619Z,98891.31
2023-04-05T05:14:42.464Z,98888.41
2023-04-05T05:15:46.672Z,98887.19
2023-04-05T05:16:54.691Z,98890.22
2023-04-05T05:17:58.304Z,98894.88
2023-04-05T05:19:01.503Z,98891.06
2023-04-05T05:20:14.136Z,98898.28
2023-04-05T05:21:21.144Z,98890.94
2023-04-05T05:22:34.240Z,98889.50
2023-04-05T05:23:36.247Z,98899.16
2023-04-05T05:24:39.940Z,98894.47
2023-04-05T05:25:42.739Z,98895.16
2023-04-05T05:26:45.983Z,98895.84
2023-04-05T05:27:48.853Z,98892.13
2023-04-05T05:28:51.673Z,98892.69
2023-04-05T05:29:54.331Z,98900.13
2023-04-05T05:30:57.274Z,98890.88
2023-04-05T05:31:59.344Z,98885.63
2023-04-05T05:33:02.930Z,98890.22
2023-04-05T05:34:06.440Z,98893.28
2023-04-05T05:35:10.061Z,98892.34
2023-04-05T05:36:12.303Z,98894.94
2023-04-05T05:37:17.714Z,98901.25
2023-04-05T05:38:19.521Z,98896.28
2023-04-05T05:39:23.538Z,98894.63
2023-04-05T05:40:26.837Z,98894.56
2023-04-05T05:41:29.681Z,98894.50
2023-04-05T05:42:32.720Z,98892.63
2023-04-05T05:43:35.580Z,98895.91
2023-04-05T05:44:37.569Z,98893.16
2023-04-05T05:45:46.303Z,98895.75
2023-04-05T05:46:49.121Z,98892.38
2023-04-05T05:47:51.147Z,98893.28
2023-04-05T05:48:55.727Z,98890.78
2023-04-05T05:49:59.941Z,98894.25
2023-04-05T05:51:01.973Z,98896.81
2023-04-05T05:52:05.534Z,98894.91
2023-04-05T05:53:07.695Z,98892.34
2023-04-05T05:54:10.597Z,98892.25
2023-04-05T05:55:12.820Z,98893.75
2023-04-05T05:56:15.636Z,98897.88
2023-04-05T05:57:17.623Z,98894.91
2023-04-05T05:58:21.715Z,98900.44
2023-04-05T05:59:23.567Z,98891.72
2023-04-05T06:00:27.265Z,98896.69
2023-04-05T06:01:34.544Z,98895.69
2023-04-05T06:02:37.610Z,98894.00
2023-04-05T06:03:39.629Z,98894.84
2023-04-05T06:04:42.900Z,98895.69
2023-04-05T06:05:52.211Z,98892.34
2023-04-05T06:06:55.043Z,98893.22
2023-04-05T06:07:59.478Z,98889.78
2023-04-05T06:09:01.585Z,98894.78
2023-04-05T06:10:05.425Z,98898.13
2023-04-05T06:11:08.385Z,98896.31
2023-04-05T06:12:11.177Z,98895.41
2023-04-05T06:13:14.057Z,98894.47
2023-04-05T06:14:17.693Z,98903.00
2023-04-05T06:15:20.566Z,98900.44
2023-04-05T06:16:22.895Z,98897.03
2023-04-05T06:17:26.268Z,98897.88
2023-04-05T06:18:29.139Z,98896.13
2023-04-05T06:19:31.440Z,98894.38
2023-04-05T06:20:35.712Z,98896.97
2023-04-05T06:21:39.624Z,98897.03
2023-04-05T06:22:42.654Z,98894.56
2023-04-05T06:23:44.760Z,98894.56
2023-04-05T06:24:47.706Z,98900.56
2023-04-05T06:25:49.696Z,98895.28
2023-04-05T06:26:53.063Z,98898.50
2023-04-05T06:27:55.030Z,98893.09
2023-04-05T06:28:58.085Z,98895.31
2023-04-05T06:30:01.896Z,98897.69
2023-04-05T06:31:04.904Z,98896.47
2023-04-05T06:32:07.865Z,98898.72
2023-04-05T06:33:10.952Z,98900.22
2023-04-05T06:34:13.850Z,98900.94
2023-04-05T06:35:17.658Z,98902.47
2023-04-05T06:36:21.411Z,98905.59
2023-04-05T06:37:24.594Z,98894.25
2023-04-05T06:38:27.407Z,98900.94
2023-04-05T06:39:30.130Z,98899.81
2023-04-05T06:40:33.053Z,98903.03
2023-04-05T06:41:35.854Z,98901.91
2023-04-05T06:42:37.736Z,98901.63
2023-04-05T06:43:42.430Z,98899.66
2023-04-05T06:44:45.894Z,98902.72
2023-04-05T06:45:51.562Z,98903.47
2023-04-05T06:46:53.507Z,98899.38
2023-04-05T06:47:56.396Z,98901.09
2023-04-05T06:48:58.555Z,98895.75
2023-04-05T06:50:02.206Z,98902.44
2023-04-05T06:51:04.433Z,98900.78
2023-04-05T06:52:07.358Z,98898.94
2023-04-05T06:53:10.891Z,98899.69
2023-04-05T06:54:13.682Z,98892.78
2023-04-05T06:55:16.155Z,98893.34
2023-04-05T06:56:19.049Z,98894.59
2023-04-05T06:57:21.105Z,98896.94
2023-04-05T06:58:26.307Z,98894.13
2023-04-05T06:59:28.756Z,98896.25
2023-04-05T07:00:31.829Z,98895.94
2023-04-05T07:01:34.090Z,98893.97
2023-04-05T07:02:36.943Z,98895.41
2023-04-05T07:03:39.845Z,98891.88
2023-04-05T07:04:43.664Z,98892.78
2023-04-05T07:05:51.415Z,98894.69
2023-04-05T07:06:55.691Z,98899.31
2023-04-05T07:07:57.739Z,98897.88
2023-04-05T07:09:04.212Z,98893.69
2023-04-05T07:10:07.208Z,98899.13
2023-04-05T07:11:11.324Z,98901.09
2023-04-05T07:12:13.240Z,98892.75
2023-04-05T07:13:17.103Z,98892.91
2023-04-05T07:14:19.413Z,98897.09
2023-04-05T07:15:22.575Z,98889.88
2023-04-05T07:16:24.862Z,98890.44
2023-04-05T07:17:28.074Z,98894.59
2023-04-05T07:18:30.144Z,98895.72
2023-04-05T07:19:33.293Z,98890.66
2023-04-05T07:20:37.807Z,98890.66
2023-04-05T07:21:39.590Z,98895.81
2023-04-05T07:22:42.612Z,98893.03
2023-04-05T07:23:46.488Z,98886.28
2023-04-05T07:24:52.376Z,98892.03
2023-04-05T07:25:55.431Z,98889.84
2023-04-05T07:26:58.304Z,98887.22
2023-04-05T07:28:01.863Z,98880.16
2023-04-05T07:29:04.878Z,98886.56
2023-04-05T07:30:08.142Z,98886.50
2023-04-05T07:31:11.054Z,98894.06
2023-04-05T07:32:12.951Z,98886.06
2023-04-05T07:33:21.669Z,98893.72
2023-04-05T07:34:24.518Z,98881.59
2023-04-05T07:35:26.335Z,98888.03
2023-04-05T07:36:31.163Z,98895.13
2023-04-05T07:37:32.973Z,98887.03
2023-04-05T07:38:36.890Z,98887.06
2023-04-05T07:39:42.483Z,98892.69
2023-04-05T07:40:46.563Z,98891.66
2023-04-05T07:41:48.376Z,98888.63
2023-04-05T07:42:51.585Z,98887.66
2023-04-05T07:43:53.459Z,98886.19
2023-04-05T07:44:56.209Z,98896.09
2023-04-05T07:46:02.809Z,98887.47
2023-04-05T07:47:04.730Z,98880.22
2023-04-05T07:48:07.635Z,98879.81
2023-04-05T07:49:10.706Z,98882.91
2023-04-05T07:50:15.197Z,98881.72
2023-04-05T07:51:17.390Z,98883.31
2023-04-05T07:52:20.598Z,98878.84
2023-04-05T07:53:22.409Z,98879.63
2023-04-05T07:54:25.306Z,98882.53
2023-04-05T07:55:29.197Z,98880.03
2023-04-05T07:56:33.418Z,98877.47
2023-04-05T07:57:35.699Z,98884.63
2023-04-05T07:58:41.100Z,98879.25
2023-04-05T07:59:43.191Z,98881.34
2023-04-05T08:00:46.326Z,98883.75
2023-04-05T08:01:50.429Z,98883.00
2023-04-05T08:02:53.250Z,98883.28
2023-04-05T08:03:57.402Z,98884.31
2023-04-05T08:05:00.571Z,98882.56
2023-04-05T08:06:11.038Z,98885.34
2023-04-05T08:07:14.030Z,98880.75
2023-04-05T08:08:17.793Z,98881.06
2023-04-05T08:09:20.580Z,98878.66
2023-04-05T08:10:23.423Z,98875.59
2023-04-05T08:11:26.971Z,98877.78
2023-04-05T08:12:31.876Z,98877.66
2023-04-05T08:13:33.961Z,98880.66
2023-04-05T08:14:37.194Z,98875.16
2023-04-05T08:15:40.953Z,98875.88
2023-04-05T08:16:44.417Z,98890.59
2023-04-05T08:17:47.558Z,98883.13
2023-04-05T08:18:50.516Z,98884.06
2023-04-05T08:19:53.255Z,98885.38
2023-04-05T08:20:57.148Z,98888.22
2023-04-05T08:21:59.992Z,98878.28
2023-04-05T08:23:02.835Z,98886.50
2023-04-05T08:24:06.537Z,98884.34
2023-04-05T08:25:10.511Z,98887.97
2023-04-05T08:26:12.479Z,98875.88
2023-04-05T08:27:15.786Z,98883.66
2023-04-05T08:28:19.231Z,98874.22
2023-04-05T08:29:22.102Z,98881.69
2023-04-05T08:30:24.959Z,98866.28
2023-04-05T08:31:28.250Z,98883.75
2023-04-05T08:32:30.258Z,98874.13
2023-04-05T08:33:34.373Z,98866.84
2023-04-05T08:34:36.416Z,98863.44
2023-04-05T08:35:39.828Z,98865.19
2023-04-05T08:36:43.058Z,98859.44
2023-04-05T08:37:47.537Z,98859.22
2023-04-05T08:38:49.356Z,98856.47
2023-04-05T08:39:52.439Z,98852.78
2023-04-05T08:40:54.343Z,98859.69
2023-04-05T08:42:03.140Z,98851.16
2023-04-05T08:43:11.572Z,98860.69
2023-04-05T08:44:16.937Z,98863.50
2023-04-05T08:45:21.081Z,98857.50
2023-04-05T08:46:24.196Z,98861.22
2023-04-05T08:47:27.232Z,98862.53
2023-04-05T08:48:32.956Z,98858.31
2023-04-05T08:49:35.919Z,98868.16
2023-04-05T08:50:37.916Z,98868.78
2023-04-05T08:51:40.844Z,98862.13
2023-04-05T08:52:43.808Z,98848.41
2023-04-05T08:53:46.832Z,98860.53
2023-04-05T08:54:50.726Z,98863.97
2023-04-05T08:56:22.118Z,98859.22
2023-04-05T08:57:27.409Z,98864.25
2023-04-05T08:58:39.692Z,98866.41
2023-04-05T08:59:44.872Z,98862.09
2023-04-05T09:00:47.560Z,98865.25
2023-04-05T09:01:52.617Z,98862.41
2023-04-05T09:02:57.154Z,98862.16
2023-04-05T09:04:07.424Z,98858.34
2023-04-05T09:05:10.191Z,98867.28
2023-04-05T09:06:14.048Z,98859.41
2023-04-05T09:07:43.055Z,98859.56
2023-04-05T09:08:45.340Z,98856.06
2023-04-05T09:09:51.042Z,98861.22
2023-04-05T09:10:57.389Z,98855.16
2023-04-05T09:11:59.412Z,98866.41
2023-04-05T09:13:03.451Z,98868.09
2023-04-05T09:14:06.814Z,98855.31
2023-04-05T09:15:11.645Z,98856.91
2023-04-05T09:16:14.828Z,98852.03
2023-04-05T09:17:19.494Z,98851.66
2023-04-05T09:18:26.886Z,98853.69
2023-04-05T09:19:29.956Z,98851.13
2023-04-05T09:20:34.766Z,98853.78
2023-04-05T09:22:04.638Z,98842.44
2023-04-05T09:23:12.507Z,98843.59
2023-04-05T09:24:15.576Z,98858.09
2023-04-05T09:25:35.878Z,98854.81
2023-04-05T09:26:45.265Z,98851.03
2023-04-05T09:27:56.258Z,98850.94
2023-04-05T09:28:59.057Z,98840.63
2023-04-05T09:30:03.504Z,98841.22
2023-04-05T09:31:08.936Z,98849.63
2023-04-05T09:32:12.715Z,98844.66
2023-04-05T09:33:19.979Z,98848.09
2023-04-05T09:34:22.903Z,98849.75
2023-04-05T09:35:27.672Z,98843.00
2023-04-05T09:36:30.106Z,98848.56
2023-04-05T09:37:33.566Z,98843.72
2023-04-05T09:38:45.964Z,98829.38
2023-04-05T09:40:04.196Z,98835.63
2023-04-05T09:41:09.131Z,98838.31
2023-04-05T09:42:14.363Z,98834.88
2023-04-05T09:43:36.901Z,98832.06
2023-04-05T09:44:53.822Z,98831.69
2023-04-05T09:45:58.519Z,98835.34
2023-04-05T09:47:16.706Z,98825.53
2023-04-05T09:48:20.328Z,98822.63
2023-04-05T09:49:33.300Z,98820.13
2023-04-05T09:50:36.526Z,98829.41
2023-04-05T09:51:42.359Z,98831.91
2023-04-05T09:52:48.211Z,98826.19
2023-04-05T09:54:00.521Z,98823.50
2023-04-05T09:55:06.683Z,98827.59
2023-04-05T09:56:09.651Z,98829.97
2023-04-05T09:57:12.610Z,98829.16
2023-04-05T09:58:21.439Z,98824.72
2023-04-05T09:59:23.654Z,98825.81
2023-04-05T10:00:26.500Z,98818.88
2023-04-05T10:01:28.994Z,98823.94
2023-04-05T10:02:38.326Z,98820.31
2023-04-05T10:03:46.832Z,98830.94
2023-04-05T10:04:49.724Z,98825.03
2023-04-05T10:05:55.475Z,98829.47
2023-04-05T10:06:58.390Z,98834.84
2023-04-05T10:08:02.007Z,98836.25
2023-04-05T10:09:09.021Z,98830.69
2023-04-05T10:10:12.560Z,98838.25
2023-04-05T10:11:19.299Z,98828.28
2023-04-05T10:12:26.767Z,98832.84
2023-04-05T10:13:28.621Z,98836.59
2023-04-05T10:14:31.487Z,98834.56
2023-04-05T10:15:33.746Z,98835.41
2023-04-05T10:16:39.707Z,98838.00
2023-04-05T10:17:49.659Z,98835.56
2023-04-05T10:18:52.622Z,98837.25
2023-04-05T10:20:11.742Z,98827.97
2023-04-05T10:21:17.169Z,98835.25
2023-04-05T10:22:24.439Z,98819.66
2023-04-05T10:23:29.604Z,98827.72
2023-04-05T10:24:36.713Z,98827.13
2023-04-05T10:25:52.950Z,98823.47
2023-04-05T10:27:01.089Z,98823.72
2023-04-05T10:28:05.675Z,98808.97
2023-04-05T10:29:13.674Z,98819.13
2023-04-05T10:30:17.550Z,98818.03
2023-04-05T10:31:37.136Z,98808.59
2023-04-05T10:32:53.307Z,98824.69
2023-04-05T10:33:59.463Z,98818.03
2023-04-05T10:35:08.351Z,98828.03
2023-04-05T10:36:18.437Z,98818.91
2023-04-05T10:37:33.678Z,98823.63
2023-04-05T10:38:45.935Z,98819.78
2023-04-05T10:39:51.384Z,98823.50
2023-04-05T10:40:56.402Z,98818.81
2023-04-05T10:42:01.027Z,98818.72
2023-04-05T10:43:09.288Z,98817.19
2023-04-05T10:44:25.123Z,98821.19
2023-04-05T10:45:29.778Z,98810.88
2023-04-05T10:46:33.521Z,98814.16
2023-04-05T10:47:42.230Z,98816.94
2023-04-05T10:48:50.572Z,98805.69
2023-04-05T10:49:54.202Z,98803.59
2023-04-05T10:50:57.859Z,98809.22
2023-04-05T10:51:59.873Z,98811.91
2023-04-05T10:53:04.581Z,98808.75
2023-04-05T10:54:08.537Z,98810.25
2023-04-05T10:55:11.475Z,98808.97
2023-04-05T10:56:14.624Z,98805.25
2023-04-05T10:57:19.075Z,98801.59
2023-04-05T10:58:21.978Z,98804.75
2023-04-05T10:59:25.735Z,98798.13
2023-04-05T11:00:28.851Z,98802.69
2023-04-05T11:01:31.135Z,98810.84
2023-04-05T11:02:34.381Z,98805.09
2023-04-05T11:03:48.877Z,98815.78
2023-04-05T11:04:57.735Z,98804.41
2023-04-05T11:06:25.269Z,98800.97
2023-04-05T11:07:44.026Z,98800.53
2023-04-05T11:08:47.177Z,98802.22
2023-04-05T11:09:56.652Z,98805.34
2023-04-05T11:10:58.493Z,98796.47
2023-04-05T11:12:01.414Z,98805.44
2023-04-05T11:13:04.852Z,98795.19
2023-04-05T11:14:19.543Z,98796.13
2023-04-05T11:15:32.490Z,98792.94
2023-04-05T11:16:41.533Z,98791.56
2023-04-05T11:17:43.417Z,98787.88
2023-04-05T11:18:48.259Z,98794.56
2023-04-05T11:19:52.338Z,98781.44
2023-04-05T11:21:08.006Z,98772.00
2023-04-05T11:22:10.058Z,98778.81
2023-04-05T11:23:13.831Z,98796.44
2023-04-05T11:24:16.958Z,98789.53
2023-04-05T11:25:23.137Z,98792.81
2023-04-05T11:26:32.719Z,98795.25
2023-04-05T11:27:37.521Z,98784.63
2023-04-05T11:28:41.328Z,98776.84
2023-04-05T11:29:50.042Z,98769.72
2023-04-05T11:30:56.456Z,98783.19
2023-04-05T11:32:00.242Z,98784.75
2023-04-05T11:33:09.091Z,98799.06
2023-04-05T11:34:12.466Z,98800.25
2023-04-05T11:35:17.694Z,98791.94
2023-04-05T11:36:31.375Z,98790.75
2023-04-05T11:37:56.677Z,98799.25
2023-04-05T11:39:28.027Z,98793.16
2023-04-05T11:40:31.914Z,98793.13
2023-04-05T11:41:35.621Z,98792.91
2023-04-05T11:42:38.632Z,98798.47
2023-04-05T11:43:42.564Z,98804.28
2023-04-05T11:44:47.044Z,98798.13
2023-04-05T11:45:49.095Z,98792.31
2023-04-05T11:46:52.915Z,98789.00
2023-04-05T11:47:56.358Z,98795.84
2023-04-05T11:50:28.710Z,98789.81
2023-04-05T11:51:32.953Z,98791.78
2023-04-05T11:52:35.790Z,98795.72
2023-04-05T11:53:38.208Z,98793.50
2023-04-05T11:54:46.766Z,98802.41
2023-04-05T11:55:51.117Z,98799.50
2023-04-05T11:56:53.932Z,98792.31
2023-04-05T11:57:56.991Z,98795.22
2023-04-05T11:58:58.998Z,98794.09
2023-04-05T12:00:01.842Z,98789.31
2023-04-05T12:01:14.319Z,98797.50
2023-04-05T12:02:17.356Z,98800.38
2023-04-05T12:03:19.311Z,98804.75
2023-04-05T12:04:22.338Z,98800.81
2023-04-05T12:05:25.553Z,98808.88
2023-04-05T12:06:28.344Z,98804.44
2023-04-05T12:07:37.025Z,98798.97
2023-04-05T12:08:40.638Z,98794.78
2023-04-05T12:10:07.892Z,98793.69
2023-04-05T12:11:12.162Z,98793.28
2023-04-05T12:12:17.833Z,98796.06
2023-04-05T12:13:27.076Z,98781.31
2023-04-05T12:14:29.700Z,98784.56
2023-04-05T12:15:32.703Z,98781.28
2023-04-05T12:16:35.625Z,98778.06
2023-04-05T12:17:44.425Z,98777.84
2023-04-05T12:18:54.225Z,98778.88
2023-04-05T12:19:56.158Z,98775.47
2023-04-05T12:21:05.730Z,98771.91
2023-04-05T12:22:09.441Z,98766.31
2023-04-05T12:23:12.371Z,98772.03
2023-04-05T12:24:15.454Z,98775.78
2023-04-05T12:25:19.365Z,98767.38
2023-04-05T12:26:22.359Z,98772.44
2023-04-05T12:27:25.472Z,98770.03
2023-04-05T12:28:50.634Z,98766.19
2023-04-05T12:30:05.763Z,98775.28
2023-04-05T12:31:12.321Z,98770.66
2023-04-05T12:32:14.275Z,98767.97
2023-04-05T12:33:18.715Z,98775.66
2023-04-05T12:34:25.904Z,98768.31
2023-04-05T12:35:32.998Z,98760.91
2023-04-05T12:36:39.170Z,98759.16
2023-04-05T12:37:42.189Z,98767.03
2023-04-05T12:38:45.564Z,98768.69
2023-04-05T12:39:47.747Z,98765.66
2023-04-05T12:40:53.600Z,98762.16
2023-04-05T12:41:59.233Z,98758.00
2023-04-05T12:43:03.037Z,98759.69
2023-04-05T12:44:07.658Z,98763.97
2023-04-05T12:45:13.301Z,98763.28
2023-04-05T12:46:18.345Z,98774.97
2023-04-05T12:47:21.646Z,98764.16
2023-04-05T12:48:26.048Z,98760.31
2023-04-05T12:49:28.190Z,98773.50
2023-04-05T12:50:32.690Z,98759.81
2023-04-05T12:51:37.601Z,98772.81
2023-04-05T12:52:39.385Z,98769.16
2023-04-05T12:53:46.385Z,98771.56
2023-04-05T12:54:54.509Z,98771.34